Superfun — ZCCL5 — position and weather

sailwx.info

Track history (hours):
 
Tides and Currents Weather Stations Pressure Air Temp Water Temp Dewpoint Dewpoint Depression Visibility Wind Speed Wind Dir Waves Ship Positions

Superfun

Last reported at 2014-Aug-01 07:31 UTC. Time now 2014-Aug-01 07:50 UTC.
Position N 43°16' E 006°37'.

Length 40 m.

Type: Other ship. MMSI: 319163000.

Date/timePositionNaut miles runAvg speedWind from/ knotsBaromVisibWave heightAir tempDewpointWater temp
2014-Aug-01 07:31N 43°16' E 006°37'0 0.0
2014-Aug-01 06:28N 43°16' E 006°37'0 0.0
2014-Aug-01 05:31N 43°16' E 006°37'0 0.0
2014-Aug-01 04:28N 43°16' E 006°37'0 0.0
2014-Aug-01 03:31N 43°16' E 006°37'0 0.0
2014-Aug-01 02:10N 43°16' E 006°37'0 0.0
2014-Aug-01 01:25N 43°16' E 006°37'0 0.0
2014-Aug-01 00:31N 43°16' E 006°37'0 0.0
2014-Jul-31 23:25N 43°16' E 006°37'0 0.0
2014-Jul-31 22:16N 43°16' E 006°37'0 0.0
2014-Jul-31 21:25N 43°16' E 006°37'0 0.0
2014-Jul-31 20:31N 43°16' E 006°37'1 0.7
2014-Jul-31 19:32N 43°17' E 006°38'3 2.9
2014-Jul-31 18:20N 43°14' E 006°40'0 0.0
2014-Jul-31 17:26N 43°14' E 006°40'0 0.0
2014-Jul-31 14:20N 43°14' E 006°40'7 9.5
2014-Jul-31 13:34N 43°16' E 006°50'1110.6
2014-Jul-31 12:33N 43°20' E 007°04'18 9.1
2014-Jul-31 10:34N 43°31' E 007°23'1110.0
2014-Jul-31 09:30N 43°41' E 007°26'3 1.2
2014-Jul-31 07:18N 43°44' E 007°26'0 0.0
2014-Jul-30 19:07N 43°44' E 007°26'2 2.3
2014-Jul-30 18:07N 43°43' E 007°23'  
2014-Jul-25 15:20N 43°41' E 007°22'2 1.7
2014-Jul-25 14:09N 43°42' E 007°19'0 0.0
2014-Jul-25 13:09N 43°42' E 007°19'0 0.0
2014-Jul-25 12:27N 43°42' E 007°19'0 0.0
2014-Jul-25 10:21N 43°42' E 007°19'0 0.0
2014-Jul-25 09:15N 43°42' E 007°19'0 0.0
2014-Jul-25 08:21N 43°42' E 007°19'0 0.0
2014-Jul-25 07:21N 43°42' E 007°19'0 0.0
2014-Jul-25 06:21N 43°42' E 007°19'0 0.0
2014-Jul-25 05:33N 43°42' E 007°19'0 0.0
2014-Jul-25 04:21N 43°42' E 007°19'0 0.0
2014-Jul-25 03:27N 43°42' E 007°19'0 0.0
2014-Jul-25 01:33N 43°42' E 007°19'0 0.0
2014-Jul-25 00:21N 43°42' E 007°19'0 0.0
2014-Jul-24 22:15N 43°42' E 007°19'0 0.0
2014-Jul-24 21:09N 43°42' E 007°19'0 0.0
2014-Jul-24 20:33N 43°42' E 007°19'0 0.0
2014-Jul-24 18:25N 43°42' E 007°19'0 0.3
2014-Jul-24 17:31N 43°42' E 007°19'9 7.3
2014-Jul-24 16:19N 43°35' E 007°11'4 5.8
2014-Jul-24 15:33N 43°33' E 007°06'3 2.6
2014-Jul-24 14:30N 43°32' E 007°03'0 0.0
2014-Jul-24 13:24N 43°32' E 007°03'0 0.0
2014-Jul-24 12:30N 43°32' E 007°03'0 0.0
2014-Jul-24 10:30N 43°32' E 007°03'0 0.0
2014-Jul-24 09:33N 43°32' E 007°03'0 0.0
2014-Jul-24 08:21N 43°32' E 007°03'0 0.0
2014-Jul-24 07:12N 43°32' E 007°03'0 0.0
2014-Jul-24 06:12N 43°32' E 007°03'0 0.0
2014-Jul-24 05:24N 43°32' E 007°03'0 0.0
2014-Jul-24 04:30N 43°32' E 007°03'0 0.0
2014-Jul-24 03:30N 43°32' E 007°03'0 0.0
2014-Jul-24 02:30N 43°32' E 007°03'0 0.0
2014-Jul-24 01:30N 43°32' E 007°03'0 0.0
2014-Jul-24 00:24N 43°32' E 007°03'0 0.0
2014-Jul-23 23:30N 43°32' E 007°03'0 0.0
2014-Jul-23 22:30N 43°32' E 007°03'0 0.0
2014-Jul-23 21:30N 43°32' E 007°03'0 0.0
2014-Jul-23 20:12N 43°32' E 007°03'0 0.0
2014-Jul-23 18:24N 43°32' E 007°03'0 0.0
2014-Jul-23 17:30N 43°32' E 007°03'0 0.0
2014-Jul-23 16:24N 43°32' E 007°03'0 0.0
2014-Jul-23 15:24N 43°32' E 007°03'4 3.3
2014-Jul-23 14:16N 43°28' E 007°01'6 9.0
2014-Jul-23 13:33N 43°25' E 006°53'9 9.4
2014-Jul-23 12:33N 43°19' E 006°43'4 3.3
2014-Jul-23 11:27N 43°16' E 006°40'0 0.0
2014-Jul-23 10:15N 43°16' E 006°40'0 0.0
2014-Jul-23 09:33N 43°16' E 006°40'0 0.0
2014-Jul-23 08:30N 43°16' E 006°40'0 0.0
2014-Jul-23 07:33N 43°16' E 006°40'0 0.0
2014-Jul-23 06:33N 43°16' E 006°40'0 0.0
2014-Jul-23 05:33N 43°16' E 006°40'0 0.0
2014-Jul-23 04:33N 43°16' E 006°40'0 0.0
2014-Jul-23 03:33N 43°16' E 006°40'0 0.0
2014-Jul-23 02:33N 43°16' E 006°40'0 0.0
2014-Jul-23 01:33N 43°16' E 006°40'0 0.0
2014-Jul-23 00:30N 43°16' E 006°40'0 0.0
2014-Jul-22 23:12N 43°16' E 006°40'0 0.0
2014-Jul-22 21:30N 43°16' E 006°40'0 0.0
2014-Jul-22 20:30N 43°16' E 006°40'0 0.0
2014-Jul-22 19:24N 43°16' E 006°40'0 0.0
2014-Jul-22 17:33N 43°16' E 006°40'0 0.0
2014-Jul-22 16:27N 43°16' E 006°40'0 0.0
2014-Jul-22 15:21N 43°16' E 006°40'0 0.0
2014-Jul-22 14:12N 43°16' E 006°40'0 0.0
2014-Jul-22 13:18N 43°16' E 006°40'0 0.0
2014-Jul-22 12:30N 43°16' E 006°40'0 0.0
2014-Jul-22 11:27N 43°16' E 006°40'0 0.0
2014-Jul-22 10:30N 43°16' E 006°40'0 0.0
2014-Jul-22 09:30N 43°16' E 006°40'0 0.0
2014-Jul-22 08:33N 43°16' E 006°40'  
Track history (hours):
 
Tides and Currents Weather Stations Pressure Air Temp Water Temp Dewpoint Dewpoint Depression Visibility Wind Speed Wind Dir Waves Ship Positions

Superfun

Last reported at 2014-Aug-01 07:31 UTC. Time now 2014-Aug-01 07:50 UTC.
Position N 43°16' E 006°37'.

Length 40 m.

Type: Other ship. MMSI: 319163000.

Date/timePositionNaut miles runAvg speedWind from/ knotsBaromVisibWave heightAir tempDewpointWater temp
2014-Aug-01 07:31N 43°16' E 006°37'0 0.0
2014-Aug-01 06:28N 43°16' E 006°37'0 0.0
2014-Aug-01 05:31N 43°16' E 006°37'0 0.0
2014-Aug-01 04:28N 43°16' E 006°37'0 0.0
2014-Aug-01 03:31N 43°16' E 006°37'0 0.0
2014-Aug-01 02:10N 43°16' E 006°37'0 0.0
2014-Aug-01 01:25N 43°16' E 006°37'0 0.0
2014-Aug-01 00:31N 43°16' E 006°37'0 0.0
2014-Jul-31 23:25N 43°16' E 006°37'0 0.0
2014-Jul-31 22:16N 43°16' E 006°37'0 0.0
2014-Jul-31 21:25N 43°16' E 006°37'0 0.0
2014-Jul-31 20:31N 43°16' E 006°37'1 0.7
2014-Jul-31 19:32N 43°17' E 006°38'3 2.9
2014-Jul-31 18:20N 43°14' E 006°40'0 0.0
2014-Jul-31 17:26N 43°14' E 006°40'0 0.0
2014-Jul-31 14:20N 43°14' E 006°40'7 9.5
2014-Jul-31 13:34N 43°16' E 006°50'1110.6
2014-Jul-31 12:33N 43°20' E 007°04'18 9.1
2014-Jul-31 10:34N 43°31' E 007°23'1110.0
2014-Jul-31 09:30N 43°41' E 007°26'3 1.2
2014-Jul-31 07:18N 43°44' E 007°26'0 0.0
2014-Jul-30 19:07N 43°44' E 007°26'2 2.3
2014-Jul-30 18:07N 43°43' E 007°23'  
2014-Jul-25 15:20N 43°41' E 007°22'2 1.7
2014-Jul-25 14:09N 43°42' E 007°19'0 0.0
2014-Jul-25 13:09N 43°42' E 007°19'0 0.0
2014-Jul-25 12:27N 43°42' E 007°19'0 0.0
2014-Jul-25 10:21N 43°42' E 007°19'0 0.0
2014-Jul-25 09:15N 43°42' E 007°19'0 0.0
2014-Jul-25 08:21N 43°42' E 007°19'0 0.0
2014-Jul-25 07:21N 43°42' E 007°19'0 0.0
2014-Jul-25 06:21N 43°42' E 007°19'0 0.0
2014-Jul-25 05:33N 43°42' E 007°19'0 0.0
2014-Jul-25 04:21N 43°42' E 007°19'0 0.0
2014-Jul-25 03:27N 43°42' E 007°19'0 0.0
2014-Jul-25 01:33N 43°42' E 007°19'0 0.0
2014-Jul-25 00:21N 43°42' E 007°19'0 0.0
2014-Jul-24 22:15N 43°42' E 007°19'0 0.0
2014-Jul-24 21:09N 43°42' E 007°19'0 0.0
2014-Jul-24 20:33N 43°42' E 007°19'0 0.0
2014-Jul-24 18:25N 43°42' E 007°19'0 0.3
2014-Jul-24 17:31N 43°42' E 007°19'9 7.3
2014-Jul-24 16:19N 43°35' E 007°11'4 5.8
2014-Jul-24 15:33N 43°33' E 007°06'3 2.6
2014-Jul-24 14:30N 43°32' E 007°03'0 0.0
2014-Jul-24 13:24N 43°32' E 007°03'0 0.0
2014-Jul-24 12:30N 43°32' E 007°03'0 0.0
2014-Jul-24 10:30N 43°32' E 007°03'0 0.0
2014-Jul-24 09:33N 43°32' E 007°03'0 0.0
2014-Jul-24 08:21N 43°32' E 007°03'0 0.0
2014-Jul-24 07:12N 43°32' E 007°03'0 0.0
2014-Jul-24 06:12N 43°32' E 007°03'0 0.0
2014-Jul-24 05:24N 43°32' E 007°03'0 0.0
2014-Jul-24 04:30N 43°32' E 007°03'0 0.0
2014-Jul-24 03:30N 43°32' E 007°03'0 0.0
2014-Jul-24 02:30N 43°32' E 007°03'0 0.0
2014-Jul-24 01:30N 43°32' E 007°03'0 0.0
2014-Jul-24 00:24N 43°32' E 007°03'0 0.0
2014-Jul-23 23:30N 43°32' E 007°03'0 0.0
2014-Jul-23 22:30N 43°32' E 007°03'0 0.0
2014-Jul-23 21:30N 43°32' E 007°03'0 0.0
2014-Jul-23 20:12N 43°32' E 007°03'0 0.0
2014-Jul-23 18:24N 43°32' E 007°03'0 0.0
2014-Jul-23 17:30N 43°32' E 007°03'0 0.0
2014-Jul-23 16:24N 43°32' E 007°03'0 0.0
2014-Jul-23 15:24N 43°32' E 007°03'4 3.3
2014-Jul-23 14:16N 43°28' E 007°01'6 9.0
2014-Jul-23 13:33N 43°25' E 006°53'9 9.4
2014-Jul-23 12:33N 43°19' E 006°43'4 3.3
2014-Jul-23 11:27N 43°16' E 006°40'0 0.0
2014-Jul-23 10:15N 43°16' E 006°40'0 0.0
2014-Jul-23 09:33N 43°16' E 006°40'0 0.0
2014-Jul-23 08:30N 43°16' E 006°40'0 0.0
2014-Jul-23 07:33N 43°16' E 006°40'0 0.0
2014-Jul-23 06:33N 43°16' E 006°40'0 0.0
2014-Jul-23 05:33N 43°16' E 006°40'0 0.0
2014-Jul-23 04:33N 43°16' E 006°40'0 0.0
2014-Jul-23 03:33N 43°16' E 006°40'0 0.0
2014-Jul-23 02:33N 43°16' E 006°40'0 0.0
2014-Jul-23 01:33N 43°16' E 006°40'0 0.0
2014-Jul-23 00:30N 43°16' E 006°40'0 0.0
2014-Jul-22 23:12N 43°16' E 006°40'0 0.0
2014-Jul-22 21:30N 43°16' E 006°40'0 0.0
2014-Jul-22 20:30N 43°16' E 006°40'0 0.0
2014-Jul-22 19:24N 43°16' E 006°40'0 0.0
2014-Jul-22 17:33N 43°16' E 006°40'0 0.0
2014-Jul-22 16:27N 43°16' E 006°40'0 0.0
2014-Jul-22 15:21N 43°16' E 006°40'0 0.0
2014-Jul-22 14:12N 43°16' E 006°40'0 0.0
2014-Jul-22 13:18N 43°16' E 006°40'0 0.0
2014-Jul-22 12:30N 43°16' E 006°40'0 0.0
2014-Jul-22 11:27N 43°16' E 006°40'0 0.0
2014-Jul-22 10:30N 43°16' E 006°40'0 0.0
2014-Jul-22 09:30N 43°16' E 006°40'0 0.0
2014-Jul-22 08:33N 43°16' E 006°40'  

Dump ship's entire track history